createdAt,value
2022-09-18T00:01:27.029Z,100.00
2022-09-18T00:03:55.167Z,100.00
2022-09-18T00:06:24.639Z,100.00
2022-09-18T00:08:53.433Z,100.00
2022-09-18T00:11:22.415Z,100.00
2022-09-18T00:13:49.970Z,100.00
2022-09-18T00:16:18.715Z,100.00
2022-09-18T00:18:45.932Z,100.00
2022-09-18T00:21:18.534Z,100.00
2022-09-18T00:23:45.201Z,100.00
2022-09-18T00:26:13.450Z,100.00
2022-09-18T00:28:39.904Z,100.00
2022-09-18T00:31:09.719Z,100.00
2022-09-18T00:33:36.320Z,100.00
2022-09-18T00:36:05.002Z,100.00
2022-09-18T00:38:32.329Z,100.00
2022-09-18T00:41:03.733Z,99.92
2022-09-18T00:43:33.364Z,100.00
2022-09-18T00:46:05.544Z,100.00
2022-09-18T00:48:46.977Z,100.00
2022-09-18T00:51:14.698Z,100.00
2022-09-18T00:53:45.504Z,100.00
2022-09-18T00:56:15.237Z,99.83
2022-09-18T00:58:43.092Z,100.00
2022-09-18T01:01:09.599Z,100.00
2022-09-18T01:03:36.142Z,99.93
2022-09-18T01:06:15.543Z,99.93
2022-09-18T01:09:09.917Z,99.76
2022-09-18T01:12:05.635Z,99.86
2022-09-18T01:14:59.847Z,99.79
2022-09-18T01:17:50.789Z,100.00
2022-09-18T01:20:26.158Z,100.00
2022-09-18T01:23:23.867Z,100.00
2022-09-18T01:26:22.080Z,99.84
2022-09-18T01:28:57.416Z,100.00
2022-09-18T01:31:31.952Z,100.00
2022-09-18T01:34:36.980Z,99.91
2022-09-18T01:37:15.776Z,100.00
2022-09-18T01:39:54.260Z,100.00
2022-09-18T01:42:24.118Z,100.00
2022-09-18T01:44:54.528Z,100.00
2022-09-18T01:47:25.583Z,100.00
2022-09-18T01:49:54.508Z,100.00
2022-09-18T01:52:27.503Z,100.00
2022-09-18T01:54:57.938Z,100.00
2022-09-18T01:57:52.270Z,100.00
2022-09-18T02:00:20.415Z,100.00
2022-09-18T02:03:16.063Z,100.00
2022-09-18T02:05:48.430Z,100.00
2022-09-18T02:08:35.296Z,100.00
2022-09-18T02:11:06.636Z,100.00
2022-09-18T02:13:44.646Z,100.00
2022-09-18T02:16:23.345Z,100.00
2022-09-18T02:18:53.381Z,100.00
2022-09-18T02:21:26.349Z,100.00
2022-09-18T02:23:59.201Z,100.00
2022-09-18T02:26:26.835Z,100.00
2022-09-18T02:28:54.936Z,100.00
2022-09-18T02:31:22.052Z,100.00
2022-09-18T02:33:48.916Z,100.00
2022-09-18T02:36:28.943Z,100.00
2022-09-18T02:39:14.810Z,100.00
2022-09-18T02:41:51.124Z,100.00
2022-09-18T02:44:24.830Z,100.00
2022-09-18T02:47:14.936Z,100.00
2022-09-18T02:49:49.027Z,100.00
2022-09-18T02:52:22.968Z,100.00
2022-09-18T02:55:25.868Z,100.00
2022-09-18T02:58:14.166Z,100.00
2022-09-18T03:00:42.554Z,100.00
2022-09-18T03:03:14.867Z,100.00
2022-09-18T03:05:47.670Z,100.00
2022-09-18T03:08:14.056Z,100.00
2022-09-18T03:10:41.147Z,100.00
2022-09-18T03:13:08.298Z,100.00
2022-09-18T03:15:35.744Z,100.00
2022-09-18T03:18:02.147Z,100.00
2022-09-18T03:20:28.679Z,100.00
2022-09-18T03:22:55.127Z,100.00
2022-09-18T03:25:21.834Z,100.00
2022-09-18T03:27:48.491Z,100.00
2022-09-18T03:30:24.922Z,100.00
2022-09-18T03:32:51.760Z,100.00
2022-09-18T03:35:18.225Z,100.00
2022-09-18T03:37:45.957Z,100.00
2022-09-18T03:40:16.370Z,100.00
2022-09-18T03:42:44.603Z,100.00
2022-09-18T03:45:12.515Z,100.00
2022-09-18T03:47:39.363Z,100.00
2022-09-18T03:50:07.663Z,100.00
2022-09-18T03:52:36.071Z,100.00
2022-09-18T03:55:25.939Z,100.00
2022-09-18T03:58:06.367Z,100.00
2022-09-18T04:00:53.109Z,100.00
2022-09-18T04:03:34.112Z,100.00
2022-09-18T04:06:26.114Z,100.00
2022-09-18T04:09:08.380Z,100.00
2022-09-18T04:11:43.015Z,100.00
2022-09-18T04:14:09.551Z,100.00
2022-09-18T04:16:35.985Z,100.00
2022-09-18T04:19:02.894Z,100.00
2022-09-18T04:21:29.582Z,100.00
2022-09-18T04:23:59.364Z,100.00
2022-09-18T04:26:26.978Z,100.00
2022-09-18T04:28:56.657Z,100.00
2022-09-18T04:31:23.311Z,100.00
2022-09-18T04:33:50.263Z,100.00
2022-09-18T04:36:20.775Z,100.00
2022-09-18T04:38:47.325Z,100.00
2022-09-18T04:41:13.748Z,100.00
2022-09-18T04:43:43.404Z,100.00
2022-09-18T04:46:10.853Z,100.00
2022-09-18T04:48:37.444Z,100.00
2022-09-18T04:51:05.145Z,100.00
2022-09-18T04:53:44.666Z,100.00
2022-09-18T04:56:11.225Z,100.00
2022-09-18T04:58:39.671Z,100.00
2022-09-18T05:01:06.284Z,100.00
2022-09-18T05:03:32.826Z,100.00
2022-09-18T05:05:59.694Z,100.00
2022-09-18T05:08:28.595Z,100.00
2022-09-18T05:10:55.346Z,100.00
2022-09-18T05:13:21.711Z,100.00
2022-09-18T05:16:08.693Z,100.00
2022-09-18T05:18:35.683Z,100.00
2022-09-18T05:21:04.405Z,100.00
2022-09-18T05:23:34.398Z,100.00
2022-09-18T05:26:02.239Z,100.00
2022-09-18T05:28:28.658Z,100.00
2022-09-18T05:31:00.882Z,100.00
2022-09-18T05:33:38.690Z,100.00
2022-09-18T05:36:05.447Z,100.00
2022-09-18T05:38:32.318Z,100.00
2022-09-18T05:41:01.741Z,100.00
2022-09-18T05:43:29.126Z,100.00
2022-09-18T05:45:56.460Z,100.00
2022-09-18T05:48:32.155Z,100.00
2022-09-18T05:50:58.658Z,100.00
2022-09-18T05:53:27.330Z,100.00
2022-09-18T05:56:17.127Z,100.00
2022-09-18T05:58:44.274Z,100.00
2022-09-18T06:01:14.153Z,100.00
2022-09-18T06:04:03.708Z,100.00
2022-09-18T06:06:40.496Z,100.00
2022-09-18T06:09:09.103Z,100.00
2022-09-18T06:11:35.539Z,100.00
2022-09-18T06:14:02.023Z,100.00
2022-09-18T06:16:28.709Z,100.00
2022-09-18T06:18:59.556Z,100.00
2022-09-18T06:21:25.986Z,100.00
2022-09-18T06:23:52.387Z,100.00
2022-09-18T06:26:48.664Z,100.00
2022-09-18T06:29:15.335Z,100.00
2022-09-18T06:31:48.462Z,100.00
2022-09-18T06:34:21.134Z,100.00
2022-09-18T06:36:48.067Z,100.00
2022-09-18T06:39:36.635Z,100.00
2022-09-18T06:42:03.821Z,100.00
2022-09-18T06:44:49.017Z,100.00
2022-09-18T06:47:16.810Z,100.00
2022-09-18T06:49:45.873Z,100.00
2022-09-18T06:52:12.294Z,100.00
2022-09-18T06:54:39.754Z,100.00
2022-09-18T06:57:07.686Z,100.00
2022-09-18T06:59:34.157Z,100.00
2022-09-18T07:02:00.801Z,100.00
2022-09-18T07:04:47.574Z,100.00
2022-09-18T07:07:16.356Z,100.00
2022-09-18T07:09:45.821Z,100.00
2022-09-18T07:12:29.310Z,100.00
2022-09-18T07:14:56.181Z,100.00
2022-09-18T07:17:26.718Z,100.00
2022-09-18T07:19:55.416Z,100.00
2022-09-18T07:22:26.762Z,100.00
2022-09-18T07:24:54.385Z,99.70
2022-09-18T07:27:21.833Z,99.50
2022-09-18T07:29:49.594Z,99.70
2022-09-18T07:32:22.472Z,99.34
2022-09-18T07:34:49.135Z,99.42
2022-09-18T07:37:22.920Z,99.91
2022-09-18T07:39:58.605Z,99.53
2022-09-18T07:42:43.449Z,99.40
2022-09-18T07:45:10.904Z,99.10
2022-09-18T07:47:37.543Z,99.58
2022-09-18T07:50:06.305Z,98.86
2022-09-18T07:52:32.825Z,99.12
2022-09-18T07:54:59.589Z,99.07
2022-09-18T07:57:30.366Z,99.32
2022-09-18T08:00:14.549Z,99.48
2022-09-18T08:02:47.834Z,99.62
2022-09-18T08:05:27.229Z,100.00
2022-09-18T08:08:06.163Z,99.22
2022-09-18T08:10:50.989Z,99.43
2022-09-18T08:13:35.711Z,99.64
2022-09-18T08:16:26.790Z,99.21
2022-09-18T08:19:02.210Z,99.67
2022-09-18T08:21:48.978Z,99.67
2022-09-18T08:24:17.315Z,99.55
2022-09-18T08:26:45.092Z,99.88
2022-09-18T08:29:18.708Z,99.71
2022-09-18T08:31:50.110Z,99.81
2022-09-18T08:34:17.220Z,99.20
2022-09-18T08:36:44.715Z,98.77
2022-09-18T08:39:46.131Z,97.78
2022-09-18T08:43:03.315Z,97.44
2022-09-18T08:45:56.227Z,97.23
2022-09-18T08:48:26.456Z,97.06
2022-09-18T08:51:14.532Z,95.93
2022-09-18T08:53:50.750Z,95.84
2022-09-18T08:56:36.945Z,96.24
2022-09-18T08:59:46.166Z,96.29
2022-09-18T09:02:30.110Z,95.52
2022-09-18T09:05:01.862Z,96.50
2022-09-18T09:08:01.987Z,96.79
2022-09-18T09:10:41.148Z,97.05
2022-09-18T09:13:23.395Z,97.21
2022-09-18T09:15:56.394Z,97.56
2022-09-18T09:18:31.351Z,98.29
2022-09-18T09:21:11.658Z,98.20
2022-09-18T09:23:56.048Z,96.51
2022-09-18T09:27:17.536Z,98.06
2022-09-18T09:30:21.694Z,96.12
2022-09-18T09:33:32.324Z,96.05
2022-09-18T09:36:17.989Z,95.59
2022-09-18T09:39:13.259Z,96.00
2022-09-18T09:42:05.296Z,96.08
2022-09-18T09:44:57.045Z,95.88
2022-09-18T09:47:45.539Z,95.27
2022-09-18T09:50:47.267Z,94.94
2022-09-18T09:53:15.124Z,95.00
2022-09-18T09:56:01.420Z,94.09
2022-09-18T09:58:56.306Z,93.29
2022-09-18T10:01:27.937Z,94.21
2022-09-18T10:04:16.299Z,92.99
2022-09-18T10:07:05.792Z,92.34
2022-09-18T10:09:40.769Z,92.24
2022-09-18T10:12:25.344Z,91.80
2022-09-18T10:15:04.011Z,92.54
2022-09-18T10:17:37.273Z,92.40
2022-09-18T10:20:06.043Z,91.61
2022-09-18T10:22:34.799Z,90.69
2022-09-18T10:25:30.363Z,91.09
2022-09-18T10:27:58.381Z,90.12
2022-09-18T10:30:24.823Z,89.70
2022-09-18T10:32:53.402Z,88.95
2022-09-18T10:35:30.600Z,89.17
2022-09-18T10:40:39.567Z,89.36
2022-09-18T10:43:15.600Z,88.37
2022-09-18T10:45:42.059Z,88.19
2022-09-18T10:48:24.828Z,87.80
2022-09-18T10:51:00.327Z,89.06
2022-09-18T10:53:34.904Z,89.34
2022-09-18T10:56:20.525Z,88.98
2022-09-18T10:58:50.325Z,89.43
2022-09-18T11:01:17.628Z,89.72
2022-09-18T11:04:01.314Z,90.24
2022-09-18T11:06:33.932Z,89.61
2022-09-18T11:09:11.241Z,90.75
2022-09-18T11:11:46.282Z,90.35
2022-09-18T11:14:29.307Z,90.33
2022-09-18T11:17:02.061Z,90.38
2022-09-18T11:19:38.831Z,90.64
2022-09-18T11:22:49.468Z,90.98
2022-09-18T11:25:28.504Z,91.93
2022-09-18T11:28:00.979Z,90.76
2022-09-18T11:30:38.390Z,91.39
2022-09-18T11:33:20.387Z,91.36
2022-09-18T11:36:03.497Z,91.06
2022-09-18T11:38:31.811Z,89.70
2022-09-18T11:41:02.833Z,91.07
2022-09-18T11:43:38.187Z,90.20
2022-09-18T11:46:27.825Z,91.23
2022-09-18T11:49:38.943Z,90.61
2022-09-18T11:52:17.088Z,90.45
2022-09-18T11:54:58.097Z,90.94
2022-09-18T11:58:05.699Z,90.63
2022-09-18T12:00:40.252Z,89.85
2022-09-18T12:03:27.804Z,90.61
2022-09-18T12:06:00.172Z,91.44
2022-09-18T12:08:34.734Z,90.96
2022-09-18T12:11:13.059Z,91.06
2022-09-18T12:13:51.148Z,90.87
2022-09-18T12:16:38.003Z,91.29
2022-09-18T12:19:13.195Z,90.10
2022-09-18T12:22:01.509Z,91.20
2022-09-18T12:24:29.599Z,90.16
2022-09-18T12:27:14.790Z,89.38
2022-09-18T12:29:44.085Z,89.51
2022-09-18T12:32:22.441Z,89.74
2022-09-18T12:35:16.763Z,89.14
2022-09-18T12:37:45.407Z,90.07
2022-09-18T12:40:30.777Z,90.15
2022-09-18T12:43:23.111Z,90.95
2022-09-18T12:46:03.161Z,91.35
2022-09-18T12:48:38.523Z,90.57
2022-09-18T12:51:18.735Z,90.29
2022-09-18T12:54:05.874Z,89.81
2022-09-18T12:56:51.459Z,91.17
2022-09-18T12:59:40.752Z,90.73
2022-09-18T13:02:14.491Z,92.01
2022-09-18T13:04:47.928Z,92.38
2022-09-18T13:07:19.817Z,91.93
2022-09-18T13:10:05.660Z,91.93
2022-09-18T13:12:49.475Z,92.67
2022-09-18T13:15:25.605Z,92.48
2022-09-18T13:18:01.162Z,92.68
2022-09-18T13:20:44.278Z,92.90
2022-09-18T13:23:33.564Z,93.06
2022-09-18T13:26:01.528Z,93.00
2022-09-18T13:28:28.840Z,92.71
2022-09-18T13:31:33.472Z,92.78
2022-09-18T13:34:04.580Z,92.82
2022-09-18T13:36:34.710Z,92.55
2022-09-18T13:39:17.495Z,92.34
2022-09-18T13:41:47.937Z,92.04
2022-09-18T13:44:24.892Z,92.14
2022-09-18T13:46:54.910Z,92.89
2022-09-18T13:49:29.014Z,92.37
2022-09-18T13:51:56.540Z,90.64
2022-09-18T13:54:25.964Z,89.45
2022-09-18T13:57:14.611Z,89.99
2022-09-18T13:59:49.924Z,88.32
2022-09-18T14:02:31.552Z,89.05
2022-09-18T14:04:59.588Z,89.26
2022-09-18T14:07:25.915Z,89.94
2022-09-18T14:10:04.872Z,89.89
2022-09-18T14:12:36.063Z,90.37
2022-09-18T14:15:04.295Z,90.43
2022-09-18T14:17:32.622Z,90.56
2022-09-18T14:20:10.992Z,91.17
2022-09-18T14:22:40.232Z,92.21
2022-09-18T14:25:11.247Z,91.71
2022-09-18T14:28:03.396Z,92.16
2022-09-18T14:30:31.461Z,92.53
2022-09-18T14:33:08.356Z,90.86
2022-09-18T14:35:41.859Z,91.71
2022-09-18T14:38:25.720Z,90.55
2022-09-18T14:40:57.942Z,90.05
2022-09-18T14:43:25.542Z,90.69
2022-09-18T14:45:53.217Z,91.32
2022-09-18T14:48:25.808Z,90.61
2022-09-18T14:51:04.559Z,90.70
2022-09-18T14:53:31.677Z,90.51
2022-09-18T14:56:02.888Z,90.68
2022-09-18T14:58:34.520Z,90.91
2022-09-18T15:01:02.726Z,91.10
2022-09-18T15:03:32.304Z,92.04
2022-09-18T15:06:15.791Z,92.53
2022-09-18T15:08:45.671Z,92.32
2022-09-18T15:11:17.543Z,93.04
2022-09-18T15:13:44.222Z,93.08
2022-09-18T15:16:21.341Z,92.93
2022-09-18T15:18:49.243Z,93.19
2022-09-18T15:21:20.431Z,94.14
2022-09-18T15:23:46.814Z,94.44
2022-09-18T15:26:15.591Z,94.27
2022-09-18T15:28:44.950Z,94.14
2022-09-18T15:31:13.048Z,94.41
2022-09-18T15:33:50.509Z,94.45
2022-09-18T15:36:26.475Z,94.14
2022-09-18T15:38:54.729Z,94.29
2022-09-18T15:41:30.511Z,94.02
2022-09-18T15:43:56.920Z,94.25
2022-09-18T15:46:41.265Z,94.13
2022-09-18T15:49:28.941Z,94.09
2022-09-18T15:51:55.907Z,94.32
2022-09-18T15:54:22.204Z,94.61
2022-09-18T15:56:57.574Z,94.97
2022-09-18T15:59:36.952Z,94.45
2022-09-18T16:02:18.922Z,94.72
2022-09-18T16:04:45.250Z,94.65
2022-09-18T16:07:21.451Z,94.43
2022-09-18T16:09:49.294Z,94.90
2022-09-18T16:12:26.529Z,94.98
2022-09-18T16:15:11.111Z,94.95
2022-09-18T16:17:51.040Z,95.12
2022-09-18T16:20:37.075Z,94.65
2022-09-18T16:23:25.995Z,94.96
2022-09-18T16:26:06.578Z,94.90
2022-09-18T16:28:44.679Z,94.99
2022-09-18T16:31:18.285Z,95.07
2022-09-18T16:34:01.173Z,95.57
2022-09-18T16:36:36.090Z,95.38
2022-09-18T16:39:07.934Z,95.27
2022-09-18T16:41:35.038Z,94.71
2022-09-18T16:44:04.034Z,94.79
2022-09-18T16:46:52.108Z,95.49
2022-09-18T16:49:23.179Z,95.42
2022-09-18T16:51:49.644Z,95.71
2022-09-18T16:54:16.084Z,96.03
2022-09-18T16:56:51.503Z,95.51
2022-09-18T16:59:20.433Z,95.26
2022-09-18T17:02:02.962Z,95.18
2022-09-18T17:04:30.359Z,95.57
2022-09-18T17:06:56.794Z,94.85
2022-09-18T17:09:23.892Z,94.77
2022-09-18T17:11:51.639Z,94.39
2022-09-18T17:14:18.366Z,94.22
2022-09-18T17:16:45.997Z,94.26
2022-09-18T17:19:13.055Z,94.64
2022-09-18T17:21:39.899Z,94.63
2022-09-18T17:24:07.273Z,94.70
2022-09-18T17:26:35.718Z,95.34
2022-09-18T17:29:02.192Z,95.42
2022-09-18T17:31:28.761Z,94.72
2022-09-18T17:33:55.785Z,94.96
2022-09-18T17:36:22.948Z,94.74
2022-09-18T17:38:49.417Z,95.35
2022-09-18T17:41:18.221Z,95.11
2022-09-18T17:43:45.011Z,95.44
2022-09-18T17:46:13.157Z,95.51
2022-09-18T17:48:39.623Z,95.97
2022-09-18T17:51:15.580Z,95.91
2022-09-18T17:53:43.240Z,96.00
2022-09-18T17:56:11.279Z,96.12
2022-09-18T17:58:40.547Z,96.42
2022-09-18T18:01:10.845Z,96.43
2022-09-18T18:03:37.431Z,96.46
2022-09-18T18:06:03.892Z,96.57
2022-09-18T18:08:30.908Z,96.60
2022-09-18T18:11:04.260Z,96.59
2022-09-18T18:13:30.675Z,96.85
2022-09-18T18:16:09.526Z,96.83
2022-09-18T18:18:39.531Z,97.25
2022-09-18T18:21:07.176Z,97.36
2022-09-18T18:23:36.008Z,97.46
2022-09-18T18:26:04.642Z,97.60
2022-09-18T18:28:32.439Z,97.31
2022-09-18T18:31:06.026Z,97.63
2022-09-18T18:33:36.534Z,97.56
2022-09-18T18:36:10.025Z,97.52
2022-09-18T18:38:36.537Z,97.79
2022-09-18T18:41:03.845Z,98.11
2022-09-18T18:43:31.438Z,97.90
2022-09-18T18:45:58.163Z,98.12
2022-09-18T18:48:24.577Z,97.85
2022-09-18T18:50:50.952Z,98.32
2022-09-18T18:53:17.490Z,97.78
2022-09-18T18:55:48.587Z,98.19
2022-09-18T18:58:15.628Z,97.97
2022-09-18T19:00:42.118Z,98.17
2022-09-18T19:03:08.551Z,98.12
2022-09-18T19:05:35.995Z,98.04
2022-09-18T19:08:03.672Z,97.88
2022-09-18T19:10:30.359Z,97.80
2022-09-18T19:12:57.128Z,97.86
2022-09-18T19:15:24.856Z,97.80
2022-09-18T19:17:51.987Z,97.69
2022-09-18T19:20:19.805Z,97.64
2022-09-18T19:22:56.756Z,97.70
2022-09-18T19:25:27.219Z,97.61
2022-09-18T19:27:57.214Z,97.55
2022-09-18T19:30:25.296Z,97.26
2022-09-18T19:32:55.711Z,97.22
2022-09-18T19:35:22.602Z,97.39
2022-09-18T19:37:49.478Z,97.53
2022-09-18T19:40:17.564Z,97.41
2022-09-18T19:42:50.867Z,97.60
2022-09-18T19:45:22.367Z,97.57
2022-09-18T19:47:50.667Z,97.65
2022-09-18T19:50:22.871Z,97.64
2022-09-18T19:52:51.377Z,97.21
2022-09-18T19:55:20.458Z,97.13
2022-09-18T19:57:47.890Z,97.37
2022-09-18T20:00:14.876Z,97.23
2022-09-18T20:02:41.564Z,96.81
2022-09-18T20:05:09.618Z,97.08
2022-09-18T20:07:39.730Z,96.91
2022-09-18T20:10:08.815Z,96.92
2022-09-18T20:12:38.003Z,96.97
2022-09-18T20:15:05.491Z,96.99
2022-09-18T20:17:32.185Z,96.35
2022-09-18T20:19:59.514Z,96.51
2022-09-18T20:22:26.790Z,96.64
2022-09-18T20:24:53.967Z,96.93
2022-09-18T20:27:21.839Z,96.98
2022-09-18T20:29:48.906Z,96.88
2022-09-18T20:32:15.413Z,96.83
2022-09-18T20:34:45.900Z,96.98
2022-09-18T20:37:14.047Z,96.80
2022-09-18T20:39:41.095Z,96.68
2022-09-18T20:42:07.499Z,96.93
2022-09-18T20:44:34.933Z,97.11
2022-09-18T20:47:05.082Z,96.94
2022-09-18T20:49:34.469Z,97.18
2022-09-18T20:52:03.238Z,97.24
2022-09-18T20:54:30.453Z,96.94
2022-09-18T20:56:57.642Z,96.87
2022-09-18T20:59:24.876Z,96.63
2022-09-18T21:01:51.807Z,96.91
2022-09-18T21:04:20.738Z,96.66
2022-09-18T21:06:55.847Z,96.85
2022-09-18T21:09:24.611Z,96.44
2022-09-18T21:11:51.059Z,96.22
2022-09-18T21:14:19.972Z,96.43
2022-09-18T21:16:46.780Z,96.53
2022-09-18T21:19:19.221Z,96.63
2022-09-18T21:21:47.473Z,96.25
2022-09-18T21:24:17.186Z,96.53
2022-09-18T21:26:45.938Z,96.25
2022-09-18T21:29:17.013Z,96.29
2022-09-18T21:31:45.472Z,96.29
2022-09-18T21:34:19.352Z,96.08
2022-09-18T21:36:45.715Z,96.55
2022-09-18T21:39:14.234Z,96.13
2022-09-18T21:41:45.969Z,96.21
2022-09-18T21:44:13.724Z,96.18
2022-09-18T21:46:40.335Z,96.27
2022-09-18T21:49:08.717Z,96.16
2022-09-18T21:51:37.124Z,95.98
2022-09-18T21:54:05.513Z,96.16
2022-09-18T21:56:33.227Z,95.87
2022-09-18T21:58:59.976Z,96.19
2022-09-18T22:01:31.150Z,96.17
2022-09-18T22:04:00.752Z,95.82
2022-09-18T22:06:29.202Z,96.12
2022-09-18T22:08:57.307Z,95.85
2022-09-18T22:11:29.970Z,95.96
2022-09-18T22:13:59.492Z,95.76
2022-09-18T22:16:28.805Z,95.58
2022-09-18T22:18:55.791Z,95.64
2022-09-18T22:21:25.614Z,95.80
2022-09-18T22:23:54.644Z,95.77
2022-09-18T22:26:22.700Z,95.68
2022-09-18T22:28:51.220Z,95.62
2022-09-18T22:31:17.925Z,95.93
2022-09-18T22:33:46.215Z,95.79
2022-09-18T22:36:14.044Z,95.97
2022-09-18T22:38:40.910Z,95.68
2022-09-18T22:41:08.263Z,95.63
2022-09-18T22:43:35.758Z,95.87
2022-09-18T22:46:03.515Z,96.27
2022-09-18T22:48:32.607Z,96.32
2022-09-18T22:51:12.830Z,96.24
2022-09-18T22:53:45.305Z,96.49
2022-09-18T22:56:13.908Z,96.70
2022-09-18T22:58:41.658Z,96.83
2022-09-18T23:01:11.382Z,97.01
2022-09-18T23:03:38.750Z,96.93
2022-09-18T23:06:06.989Z,97.04
2022-09-18T23:08:34.824Z,96.97
2022-09-18T23:11:10.603Z,96.87
2022-09-18T23:13:41.859Z,96.75
2022-09-18T23:16:13.042Z,96.90
2022-09-18T23:18:40.694Z,96.97
2022-09-18T23:21:11.174Z,96.74
2022-09-18T23:23:39.660Z,96.54
2022-09-18T23:26:10.984Z,96.51
2022-09-18T23:28:40.170Z,96.49
2022-09-18T23:31:18.496Z,96.36
2022-09-18T23:33:53.677Z,96.15
2022-09-18T23:36:23.291Z,96.28
2022-09-18T23:38:54.571Z,96.08
2022-09-18T23:41:21.206Z,95.74
2022-09-18T23:43:49.579Z,96.08
2022-09-18T23:46:16.965Z,96.09
2022-09-18T23:48:43.718Z,95.57
2022-09-18T23:51:12.124Z,96.02
2022-09-18T23:53:41.427Z,95.48
2022-09-18T23:56:13.050Z,95.29
2022-09-18T23:58:40.617Z,95.76
